Orion, Michigan
Current Conditions -  °F | °C
As of 11:53 PM on Thursday 30 Oct 2014 (Local Time) from KPTK Reporting Station
Overcast Overcast  
Wind Chill: 42°   Ceiling: 5000
Heat Index: 45°   Visibility: 10mi
Dew Point: 36°   Wind: 6mph
Humidity: 71%   Direction: 220°SW
Pressure: 29.99"   Gusts: NA
Location:  42.7458°N, 83.2617°W
Report Text: KPTK 310353Z 22005KT 10SM OVC050 07/02 A2999 RMK AO2 SLP159 LAST AUGMENTED OBS NEXT 10Z T00720022
Loading
Personal Weather Stations






























Interactive Weather Map
Tropical Storm Tracking
New forecast layout! Learn more

10-Day Weather Forecast

Advertisements
Track Severe Weather on mobile